sensor_id;sensor_type;location;lat;lon;timestamp;temperature;humidity
33955;DHT22;20233;50.804;7.126;2023-05-09T00:01:16;16.40;99.90
33955;DHT22;20233;50.804;7.126;2023-05-09T00:03:42;16.40;99.90
33955;DHT22;20233;50.804;7.126;2023-05-09T00:06:08;16.40;99.90
33955;DHT22;20233;50.804;7.126;2023-05-09T00:08:34;16.30;99.90
33955;DHT22;20233;50.804;7.126;2023-05-09T00:11:00;16.30;99.90
33955;DHT22;20233;50.804;7.126;2023-05-09T00:13:26;16.20;99.90
33955;DHT22;20233;50.804;7.126;2023-05-09T00:15:52;16.20;99.90
33955;DHT22;20233;50.804;7.126;2023-05-09T00:18:22;16.20;99.90
33955;DHT22;20233;50.804;7.126;2023-05-09T00:20:48;16.20;99.90
33955;DHT22;20233;50.804;7.126;2023-05-09T00:23:14;16.20;99.90
33955;DHT22;20233;50.804;7.126;2023-05-09T00:25:41;16.20;99.90
33955;DHT22;20233;50.804;7.126;2023-05-09T00:28:06;16.20;99.90
33955;DHT22;20233;50.804;7.126;2023-05-09T00:30:32;16.20;99.90
33955;DHT22;20233;50.804;7.126;2023-05-09T00:32:57;16.10;99.90
33955;DHT22;20233;50.804;7.126;2023-05-09T00:35:23;16.10;99.90
33955;DHT22;20233;50.804;7.126;2023-05-09T00:37:49;16.10;99.90
33955;DHT22;20233;50.804;7.126;2023-05-09T00:40:14;16.00;99.90
33955;DHT22;20233;50.804;7.126;2023-05-09T00:42:40;16.00;99.90
33955;DHT22;20233;50.804;7.126;2023-05-09T00:45:06;16.00;99.90
33955;DHT22;20233;50.804;7.126;2023-05-09T00:47:32;16.00;99.90
33955;DHT22;20233;50.804;7.126;2023-05-09T00:49:58;16.00;99.90
33955;DHT22;20233;50.804;7.126;2023-05-09T00:52:25;15.90;99.90
33955;DHT22;20233;50.804;7.126;2023-05-09T00:54:55;15.90;99.90
33955;DHT22;20233;50.804;7.126;2023-05-09T00:57:23;15.90;99.90
33955;DHT22;20233;50.804;7.126;2023-05-09T00:59:49;15.90;99.90
33955;DHT22;20233;50.804;7.126;2023-05-09T01:02:16;15.90;99.90
33955;DHT22;20233;50.804;7.126;2023-05-09T01:04:43;15.90;99.90
33955;DHT22;20233;50.804;7.126;2023-05-09T01:07:15;15.90;99.90
33955;DHT22;20233;50.804;7.126;2023-05-09T01:09:59;15.90;99.90
33955;DHT22;20233;50.804;7.126;2023-05-09T01:12:46;15.90;99.90
33955;DHT22;20233;50.804;7.126;2023-05-09T01:15:38;15.80;99.90
33955;DHT22;20233;50.804;7.126;2023-05-09T01:18:19;15.80;99.90
33955;DHT22;20233;50.804;7.126;2023-05-09T01:20:52;15.80;99.90
33955;DHT22;20233;50.804;7.126;2023-05-09T01:23:46;15.90;99.90
33955;DHT22;20233;50.804;7.126;2023-05-09T01:29:58;15.90;99.90
33955;DHT22;20233;50.804;7.126;2023-05-09T01:32:26;15.90;99.90
33955;DHT22;20233;50.804;7.126;2023-05-09T01:34:54;15.90;99.90
33955;DHT22;20233;50.804;7.126;2023-05-09T01:37:29;15.90;99.90
33955;DHT22;20233;50.804;7.126;2023-05-09T01:39:59;15.90;99.90
33955;DHT22;20233;50.804;7.126;2023-05-09T01:42:34;16.00;99.90
33955;DHT22;20233;50.804;7.126;2023-05-09T01:45:00;15.90;99.90
33955;DHT22;20233;50.804;7.126;2023-05-09T01:47:27;16.00;99.90
33955;DHT22;20233;50.804;7.126;2023-05-09T01:49:54;16.00;99.90
33955;DHT22;20233;50.804;7.126;2023-05-09T01:52:20;16.00;99.90
33955;DHT22;20233;50.804;7.126;2023-05-09T01:54:47;16.00;99.90
33955;DHT22;20233;50.804;7.126;2023-05-09T01:57:16;16.00;99.90
33955;DHT22;20233;50.804;7.126;2023-05-09T01:59:43;16.00;99.90
33955;DHT22;20233;50.804;7.126;2023-05-09T02:02:10;16.00;99.90
33955;DHT22;20233;50.804;7.126;2023-05-09T02:04:37;16.10;99.90
33955;DHT22;20233;50.804;7.126;2023-05-09T02:07:05;16.00;99.90
33955;DHT22;20233;50.804;7.126;2023-05-09T02:09:30;16.10;99.90
33955;DHT22;20233;50.804;7.126;2023-05-09T02:11:56;16.10;99.90
33955;DHT22;20233;50.804;7.126;2023-05-09T02:14:22;16.10;99.90
33955;DHT22;20233;50.804;7.126;2023-05-09T02:16:47;16.00;99.90
33955;DHT22;20233;50.804;7.126;2023-05-09T02:19:13;16.00;99.90
33955;DHT22;20233;50.804;7.126;2023-05-09T02:21:38;16.00;99.90
33955;DHT22;20233;50.804;7.126;2023-05-09T02:24:04;16.00;99.90
33955;DHT22;20233;50.804;7.126;2023-05-09T02:26:30;16.10;99.90
33955;DHT22;20233;50.804;7.126;2023-05-09T02:28:57;16.00;99.90
33955;DHT22;20233;50.804;7.126;2023-05-09T02:31:24;16.00;99.90
33955;DHT22;20233;50.804;7.126;2023-05-09T02:33:54;16.10;99.90
33955;DHT22;20233;50.804;7.126;2023-05-09T02:36:21;16.10;99.90
33955;DHT22;20233;50.804;7.126;2023-05-09T02:38:47;16.10;99.90
33955;DHT22;20233;50.804;7.126;2023-05-09T02:41:14;16.00;99.90
33955;DHT22;20233;50.804;7.126;2023-05-09T02:43:40;16.00;99.90
33955;DHT22;20233;50.804;7.126;2023-05-09T02:46:06;16.10;99.90
33955;DHT22;20233;50.804;7.126;2023-05-09T02:48:31;16.10;99.90
33955;DHT22;20233;50.804;7.126;2023-05-09T02:50:57;16.10;99.90
33955;DHT22;20233;50.804;7.126;2023-05-09T02:53:23;16.00;99.90
33955;DHT22;20233;50.804;7.126;2023-05-09T02:55:48;16.00;99.90
33955;DHT22;20233;50.804;7.126;2023-05-09T02:58:15;16.00;99.90
33955;DHT22;20233;50.804;7.126;2023-05-09T03:00:40;16.00;99.90
33955;DHT22;20233;50.804;7.126;2023-05-09T03:03:07;16.00;99.90
33955;DHT22;20233;50.804;7.126;2023-05-09T03:05:33;16.00;99.90
33955;DHT22;20233;50.804;7.126;2023-05-09T03:07:59;16.10;99.90
33955;DHT22;20233;50.804;7.126;2023-05-09T03:10:24;16.10;99.90
33955;DHT22;20233;50.804;7.126;2023-05-09T03:12:50;16.10;99.90
33955;DHT22;20233;50.804;7.126;2023-05-09T03:15:16;16.10;99.90
33955;DHT22;20233;50.804;7.126;2023-05-09T03:17:41;16.10;99.90
33955;DHT22;20233;50.804;7.126;2023-05-09T03:20:09;16.00;99.90
33955;DHT22;20233;50.804;7.126;2023-05-09T03:22:35;16.10;99.90
33955;DHT22;20233;50.804;7.126;2023-05-09T03:25:01;16.10;99.90
33955;DHT22;20233;50.804;7.126;2023-05-09T03:27:27;16.10;99.90
33955;DHT22;20233;50.804;7.126;2023-05-09T03:29:52;16.10;99.90
33955;DHT22;20233;50.804;7.126;2023-05-09T03:32:18;16.10;99.90
33955;DHT22;20233;50.804;7.126;2023-05-09T03:34:43;16.10;99.90
33955;DHT22;20233;50.804;7.126;2023-05-09T03:37:09;16.10;99.90
33955;DHT22;20233;50.804;7.126;2023-05-09T03:39:35;16.10;99.90
33955;DHT22;20233;50.804;7.126;2023-05-09T03:42:00;16.10;99.90
33955;DHT22;20233;50.804;7.126;2023-05-09T03:44:26;16.10;99.90
33955;DHT22;20233;50.804;7.126;2023-05-09T03:46:51;16.10;99.90
33955;DHT22;20233;50.804;7.126;2023-05-09T03:49:17;16.10;99.90
33955;DHT22;20233;50.804;7.126;2023-05-09T03:51:42;16.10;99.90
33955;DHT22;20233;50.804;7.126;2023-05-09T03:54:09;16.10;99.90
33955;DHT22;20233;50.804;7.126;2023-05-09T03:56:35;16.10;99.90
33955;DHT22;20233;50.804;7.126;2023-05-09T03:59:00;16.10;99.90
33955;DHT22;20233;50.804;7.126;2023-05-09T04:01:26;16.10;99.90
33955;DHT22;20233;50.804;7.126;2023-05-09T04:03:51;16.20;99.90
33955;DHT22;20233;50.804;7.126;2023-05-09T04:06:17;16.10;99.90
33955;DHT22;20233;50.804;7.126;2023-05-09T04:08:43;16.10;99.90
33955;DHT22;20233;50.804;7.126;2023-05-09T04:11:10;16.10;99.90
33955;DHT22;20233;50.804;7.126;2023-05-09T04:13:36;16.10;99.90
33955;DHT22;20233;50.804;7.126;2023-05-09T04:16:01;16.00;99.90
33955;DHT22;20233;50.804;7.126;2023-05-09T04:18:27;16.10;99.90
33955;DHT22;20233;50.804;7.126;2023-05-09T04:20:53;16.10;99.90
33955;DHT22;20233;50.804;7.126;2023-05-09T04:23:18;16.10;99.90
33955;DHT22;20233;50.804;7.126;2023-05-09T04:25:44;16.10;99.90
33955;DHT22;20233;50.804;7.126;2023-05-09T04:28:09;16.10;99.90
33955;DHT22;20233;50.804;7.126;2023-05-09T04:30:35;16.10;99.90
33955;DHT22;20233;50.804;7.126;2023-05-09T04:33:01;16.10;99.90
33955;DHT22;20233;50.804;7.126;2023-05-09T04:35:27;16.10;99.90
33955;DHT22;20233;50.804;7.126;2023-05-09T04:37:52;16.10;99.90
33955;DHT22;20233;50.804;7.126;2023-05-09T04:40:18;16.10;99.90
33955;DHT22;20233;50.804;7.126;2023-05-09T04:42:44;16.10;99.90
33955;DHT22;20233;50.804;7.126;2023-05-09T04:45:09;16.10;99.90
33955;DHT22;20233;50.804;7.126;2023-05-09T04:47:36;16.10;99.90
33955;DHT22;20233;50.804;7.126;2023-05-09T04:50:02;16.10;99.90
33955;DHT22;20233;50.804;7.126;2023-05-09T04:52:28;16.10;99.90
33955;DHT22;20233;50.804;7.126;2023-05-09T04:54:53;16.10;99.90
33955;DHT22;20233;50.804;7.126;2023-05-09T04:57:20;16.20;99.90
33955;DHT22;20233;50.804;7.126;2023-05-09T04:59:46;16.20;99.90
33955;DHT22;20233;50.804;7.126;2023-05-09T05:02:11;16.20;99.90
33955;DHT22;20233;50.804;7.126;2023-05-09T05:04:37;16.30;99.90
33955;DHT22;20233;50.804;7.126;2023-05-09T05:07:02;16.20;99.90
33955;DHT22;20233;50.804;7.126;2023-05-09T05:09:29;16.20;99.90
33955;DHT22;20233;50.804;7.126;2023-05-09T05:11:55;16.30;99.90
33955;DHT22;20233;50.804;7.126;2023-05-09T05:14:20;16.30;99.90
33955;DHT22;20233;50.804;7.126;2023-05-09T05:16:46;16.40;99.90
33955;DHT22;20233;50.804;7.126;2023-05-09T05:19:11;16.40;99.90
33955;DHT22;20233;50.804;7.126;2023-05-09T05:21:39;16.40;99.90
33955;DHT22;20233;50.804;7.126;2023-05-09T05:24:06;16.50;99.90
33955;DHT22;20233;50.804;7.126;2023-05-09T05:26:34;16.60;99.90
33955;DHT22;20233;50.804;7.126;2023-05-09T05:29:02;16.60;99.90
33955;DHT22;20233;50.804;7.126;2023-05-09T05:31:31;16.50;99.90
33955;DHT22;20233;50.804;7.126;2023-05-09T05:33:58;16.60;99.90
33955;DHT22;20233;50.804;7.126;2023-05-09T05:36:26;16.60;99.90
33955;DHT22;20233;50.804;7.126;2023-05-09T05:38:54;16.70;99.90
33955;DHT22;20233;50.804;7.126;2023-05-09T05:41:22;16.80;99.90
33955;DHT22;20233;50.804;7.126;2023-05-09T05:43:49;16.80;99.90
33955;DHT22;20233;50.804;7.126;2023-05-09T05:46:16;16.80;99.90
33955;DHT22;20233;50.804;7.126;2023-05-09T05:48:42;16.90;99.90
33955;DHT22;20233;50.804;7.126;2023-05-09T05:51:09;16.90;99.90
33955;DHT22;20233;50.804;7.126;2023-05-09T05:53:36;17.00;99.90
33955;DHT22;20233;50.804;7.126;2023-05-09T05:56:04;17.00;99.90
33955;DHT22;20233;50.804;7.126;2023-05-09T05:58:31;17.10;99.90
33955;DHT22;20233;50.804;7.126;2023-05-09T06:01:00;17.10;99.90
33955;DHT22;20233;50.804;7.126;2023-05-09T06:03:28;17.20;99.90
33955;DHT22;20233;50.804;7.126;2023-05-09T06:05:55;17.20;99.90
33955;DHT22;20233;50.804;7.126;2023-05-09T06:08:22;17.20;99.90
33955;DHT22;20233;50.804;7.126;2023-05-09T06:10:50;17.30;99.90
33955;DHT22;20233;50.804;7.126;2023-05-09T06:13:17;17.40;99.90
33955;DHT22;20233;50.804;7.126;2023-05-09T06:15:44;17.30;99.90
33955;DHT22;20233;50.804;7.126;2023-05-09T06:18:11;17.40;99.90
33955;DHT22;20233;50.804;7.126;2023-05-09T06:20:39;17.40;99.90
33955;DHT22;20233;50.804;7.126;2023-05-09T06:23:08;17.50;99.90
33955;DHT22;20233;50.804;7.126;2023-05-09T06:25:35;17.50;99.90
33955;DHT22;20233;50.804;7.126;2023-05-09T06:28:02;17.50;99.90
33955;DHT22;20233;50.804;7.126;2023-05-09T06:30:29;17.50;99.90
33955;DHT22;20233;50.804;7.126;2023-05-09T06:32:57;17.60;99.90
33955;DHT22;20233;50.804;7.126;2023-05-09T06:35:25;17.60;99.90
33955;DHT22;20233;50.804;7.126;2023-05-09T06:37:52;17.60;99.90
33955;DHT22;20233;50.804;7.126;2023-05-09T06:40:20;17.70;99.90
33955;DHT22;20233;50.804;7.126;2023-05-09T06:42:47;17.70;99.90
33955;DHT22;20233;50.804;7.126;2023-05-09T06:45:14;17.80;99.90
33955;DHT22;20233;50.804;7.126;2023-05-09T06:47:40;17.80;99.90
33955;DHT22;20233;50.804;7.126;2023-05-09T06:50:07;17.80;99.90
33955;DHT22;20233;50.804;7.126;2023-05-09T06:52:33;17.90;99.90
33955;DHT22;20233;50.804;7.126;2023-05-09T06:55:00;18.00;99.90
33955;DHT22;20233;50.804;7.126;2023-05-09T06:57:28;18.00;99.90
33955;DHT22;20233;50.804;7.126;2023-05-09T07:00:00;18.00;99.90
33955;DHT22;20233;50.804;7.126;2023-05-09T07:02:28;18.10;99.90
33955;DHT22;20233;50.804;7.126;2023-05-09T07:04:57;18.20;99.90
33955;DHT22;20233;50.804;7.126;2023-05-09T07:07:27;18.20;99.90
33955;DHT22;20233;50.804;7.126;2023-05-09T07:09:53;18.10;99.90
33955;DHT22;20233;50.804;7.126;2023-05-09T07:12:20;18.20;99.90
33955;DHT22;20233;50.804;7.126;2023-05-09T07:14:47;18.30;99.90
33955;DHT22;20233;50.804;7.126;2023-05-09T07:17:14;18.30;99.90
33955;DHT22;20233;50.804;7.126;2023-05-09T07:19:42;18.30;99.90
33955;DHT22;20233;50.804;7.126;2023-05-09T07:22:11;18.40;99.90
33955;DHT22;20233;50.804;7.126;2023-05-09T07:24:38;18.50;99.90
33955;DHT22;20233;50.804;7.126;2023-05-09T07:27:04;18.60;99.90
33955;DHT22;20233;50.804;7.126;2023-05-09T07:29:30;18.60;99.90
33955;DHT22;20233;50.804;7.126;2023-05-09T07:31:56;18.60;99.90
33955;DHT22;20233;50.804;7.126;2023-05-09T07:34:22;18.60;99.90
33955;DHT22;20233;50.804;7.126;2023-05-09T07:36:50;18.70;99.90
33955;DHT22;20233;50.804;7.126;2023-05-09T07:39:16;18.80;99.90
33955;DHT22;20233;50.804;7.126;2023-05-09T07:41:43;18.90;99.90
33955;DHT22;20233;50.804;7.126;2023-05-09T07:44:09;19.00;99.90
33955;DHT22;20233;50.804;7.126;2023-05-09T07:46:35;19.00;99.90
33955;DHT22;20233;50.804;7.126;2023-05-09T07:49:06;19.10;99.90
33955;DHT22;20233;50.804;7.126;2023-05-09T07:51:32;19.20;99.90
33955;DHT22;20233;50.804;7.126;2023-05-09T07:53:58;19.20;99.90
33955;DHT22;20233;50.804;7.126;2023-05-09T07:56:24;19.30;99.90
33955;DHT22;20233;50.804;7.126;2023-05-09T07:58:50;19.20;99.90
33955;DHT22;20233;50.804;7.126;2023-05-09T08:01:16;19.40;99.90
33955;DHT22;20233;50.804;7.126;2023-05-09T08:03:42;19.40;99.90
33955;DHT22;20233;50.804;7.126;2023-05-09T08:06:11;19.40;99.90
33955;DHT22;20233;50.804;7.126;2023-05-09T08:08:37;19.40;99.90
33955;DHT22;20233;50.804;7.126;2023-05-09T08:13:32;19.50;99.90
33955;DHT22;20233;50.804;7.126;2023-05-09T08:18:26;19.70;99.90
33955;DHT22;20233;50.804;7.126;2023-05-09T08:20:52;19.80;99.90
33955;DHT22;20233;50.804;7.126;2023-05-09T08:23:18;19.80;99.90
33955;DHT22;20233;50.804;7.126;2023-05-09T08:25:44;19.80;99.90
33955;DHT22;20233;50.804;7.126;2023-05-09T08:28:10;19.70;99.90
33955;DHT22;20233;50.804;7.126;2023-05-09T08:30:36;19.80;99.90
33955;DHT22;20233;50.804;7.126;2023-05-09T08:33:01;19.80;99.90
33955;DHT22;20233;50.804;7.126;2023-05-09T08:35:28;19.80;99.90
33955;DHT22;20233;50.804;7.126;2023-05-09T08:37:53;19.80;99.90
33955;DHT22;20233;50.804;7.126;2023-05-09T08:40:20;19.80;99.90
33955;DHT22;20233;50.804;7.126;2023-05-09T08:42:47;19.80;99.90
33955;DHT22;20233;50.804;7.126;2023-05-09T08:45:16;19.80;99.90
33955;DHT22;20233;50.804;7.126;2023-05-09T08:47:50;19.80;99.90
33955;DHT22;20233;50.804;7.126;2023-05-09T08:50:18;19.90;99.90
33955;DHT22;20233;50.804;7.126;2023-05-09T08:52:45;20.00;99.90
33955;DHT22;20233;50.804;7.126;2023-05-09T08:55:11;20.20;99.90
33955;DHT22;20233;50.804;7.126;2023-05-09T08:57:38;20.20;99.90
33955;DHT22;20233;50.804;7.126;2023-05-09T09:00:05;20.30;99.90
33955;DHT22;20233;50.804;7.126;2023-05-09T09:02:35;20.40;99.90
33955;DHT22;20233;50.804;7.126;2023-05-09T09:05:01;20.50;99.90
33955;DHT22;20233;50.804;7.126;2023-05-09T09:07:28;20.70;99.90
33955;DHT22;20233;50.804;7.126;2023-05-09T09:09:56;20.80;99.90
33955;DHT22;20233;50.804;7.126;2023-05-09T09:12:23;20.80;99.90
33955;DHT22;20233;50.804;7.126;2023-05-09T09:14:54;20.90;99.90
33955;DHT22;20233;50.804;7.126;2023-05-09T09:17:24;20.90;99.90
33955;DHT22;20233;50.804;7.126;2023-05-09T09:19:54;21.10;99.90
33955;DHT22;20233;50.804;7.126;2023-05-09T09:22:23;21.10;99.90
33955;DHT22;20233;50.804;7.126;2023-05-09T09:24:49;21.10;99.90
33955;DHT22;20233;50.804;7.126;2023-05-09T09:27:15;21.10;99.90
33955;DHT22;20233;50.804;7.126;2023-05-09T09:29:41;21.10;99.90
33955;DHT22;20233;50.804;7.126;2023-05-09T09:32:07;21.10;99.90
33955;DHT22;20233;50.804;7.126;2023-05-09T09:34:32;21.10;99.90
33955;DHT22;20233;50.804;7.126;2023-05-09T09:36:58;21.30;99.90
33955;DHT22;20233;50.804;7.126;2023-05-09T09:39:23;21.40;99.90
33955;DHT22;20233;50.804;7.126;2023-05-09T09:41:49;21.50;99.90
33955;DHT22;20233;50.804;7.126;2023-05-09T09:44:17;21.50;99.90
33955;DHT22;20233;50.804;7.126;2023-05-09T09:46:45;21.60;99.90
33955;DHT22;20233;50.804;7.126;2023-05-09T09:49:16;21.70;99.90
33955;DHT22;20233;50.804;7.126;2023-05-09T09:51:42;21.80;99.90
33955;DHT22;20233;50.804;7.126;2023-05-09T09:54:09;21.80;99.90
33955;DHT22;20233;50.804;7.126;2023-05-09T09:56:41;21.80;99.90
33955;DHT22;20233;50.804;7.126;2023-05-09T09:59:12;21.70;99.90
33955;DHT22;20233;50.804;7.126;2023-05-09T10:02:02;21.90;99.90
33955;DHT22;20233;50.804;7.126;2023-05-09T10:04:30;21.90;99.90
33955;DHT22;20233;50.804;7.126;2023-05-09T10:07:01;21.90;99.90
33955;DHT22;20233;50.804;7.126;2023-05-09T10:09:31;22.00;99.90
33955;DHT22;20233;50.804;7.126;2023-05-09T10:12:01;22.10;99.90
33955;DHT22;20233;50.804;7.126;2023-05-09T10:14:29;22.20;99.90
33955;DHT22;20233;50.804;7.126;2023-05-09T10:16:56;22.30;99.90
33955;DHT22;20233;50.804;7.126;2023-05-09T10:21:53;22.40;99.90
33955;DHT22;20233;50.804;7.126;2023-05-09T10:24:56;22.40;99.90
33955;DHT22;20233;50.804;7.126;2023-05-09T10:27:26;22.50;99.90
33955;DHT22;20233;50.804;7.126;2023-05-09T10:30:06;22.50;99.90
33955;DHT22;20233;50.804;7.126;2023-05-09T10:35:17;22.60;99.90
33955;DHT22;20233;50.804;7.126;2023-05-09T10:37:44;22.30;99.90
33955;DHT22;20233;50.804;7.126;2023-05-09T10:40:11;22.40;99.90
33955;DHT22;20233;50.804;7.126;2023-05-09T10:42:43;22.50;99.90
33955;DHT22;20233;50.804;7.126;2023-05-09T10:45:10;22.70;99.90
33955;DHT22;20233;50.804;7.126;2023-05-09T10:47:37;22.70;99.90
33955;DHT22;20233;50.804;7.126;2023-05-09T10:50:08;22.70;99.90
33955;DHT22;20233;50.804;7.126;2023-05-09T10:52:39;22.80;99.90
33955;DHT22;20233;50.804;7.126;2023-05-09T10:55:20;23.00;99.90
33955;DHT22;20233;50.804;7.126;2023-05-09T10:57:52;23.00;99.90
33955;DHT22;20233;50.804;7.126;2023-05-09T11:00:23;23.10;99.90
33955;DHT22;20233;50.804;7.126;2023-05-09T11:03:05;23.00;99.90
33955;DHT22;20233;50.804;7.126;2023-05-09T11:05:40;22.90;99.90
33955;DHT22;20233;50.804;7.126;2023-05-09T11:08:27;22.90;99.90
33955;DHT22;20233;50.804;7.126;2023-05-09T11:10:54;22.80;99.90
33955;DHT22;20233;50.804;7.126;2023-05-09T11:13:23;22.70;99.90
33955;DHT22;20233;50.804;7.126;2023-05-09T11:18:30;22.70;99.90
33955;DHT22;20233;50.804;7.126;2023-05-09T11:20:57;22.80;99.90
33955;DHT22;20233;50.804;7.126;2023-05-09T11:23:28;22.90;99.90
33955;DHT22;20233;50.804;7.126;2023-05-09T11:26:04;23.00;99.90
33955;DHT22;20233;50.804;7.126;2023-05-09T11:28:31;22.90;99.90
33955;DHT22;20233;50.804;7.126;2023-05-09T11:31:15;22.90;99.90
33955;DHT22;20233;50.804;7.126;2023-05-09T11:33:43;22.90;99.90
33955;DHT22;20233;50.804;7.126;2023-05-09T11:36:30;22.90;99.90
33955;DHT22;20233;50.804;7.126;2023-05-09T11:39:07;22.80;99.90
33955;DHT22;20233;50.804;7.126;2023-05-09T11:41:39;22.90;99.90
33955;DHT22;20233;50.804;7.126;2023-05-09T11:44:16;23.00;99.90
33955;DHT22;20233;50.804;7.126;2023-05-09T11:46:42;23.10;99.90
33955;DHT22;20233;50.804;7.126;2023-05-09T11:49:08;23.00;99.90
33955;DHT22;20233;50.804;7.126;2023-05-09T11:51:37;23.00;99.90
33955;DHT22;20233;50.804;7.126;2023-05-09T11:54:04;23.10;99.90
33955;DHT22;20233;50.804;7.126;2023-05-09T11:56:31;23.20;99.90
33955;DHT22;20233;50.804;7.126;2023-05-09T11:58:58;23.20;99.90
33955;DHT22;20233;50.804;7.126;2023-05-09T12:01:23;23.20;99.90
33955;DHT22;20233;50.804;7.126;2023-05-09T12:03:51;23.30;99.90
33955;DHT22;20233;50.804;7.126;2023-05-09T12:06:18;23.30;99.90
33955;DHT22;20233;50.804;7.126;2023-05-09T12:08:44;23.30;99.90
33955;DHT22;20233;50.804;7.126;2023-05-09T12:11:10;23.50;99.90
33955;DHT22;20233;50.804;7.126;2023-05-09T12:13:46;23.50;99.90
33955;DHT22;20233;50.804;7.126;2023-05-09T12:16:12;23.60;99.90
33955;DHT22;20233;50.804;7.126;2023-05-09T12:18:49;23.70;99.90
33955;DHT22;20233;50.804;7.126;2023-05-09T12:21:18;23.60;99.90
33955;DHT22;20233;50.804;7.126;2023-05-09T12:23:45;23.70;99.90
33955;DHT22;20233;50.804;7.126;2023-05-09T12:26:11;23.70;99.90
33955;DHT22;20233;50.804;7.126;2023-05-09T12:28:37;23.80;99.90
33955;DHT22;20233;50.804;7.126;2023-05-09T12:31:04;23.70;99.90
33955;DHT22;20233;50.804;7.126;2023-05-09T12:33:30;23.80;99.90
33955;DHT22;20233;50.804;7.126;2023-05-09T12:36:05;23.90;99.90
33955;DHT22;20233;50.804;7.126;2023-05-09T12:38:31;24.00;99.90
33955;DHT22;20233;50.804;7.126;2023-05-09T12:41:04;24.20;99.90
33955;DHT22;20233;50.804;7.126;2023-05-09T12:43:34;24.40;99.90
33955;DHT22;20233;50.804;7.126;2023-05-09T12:46:01;24.20;99.90
33955;DHT22;20233;50.804;7.126;2023-05-09T12:48:29;24.20;99.90
33955;DHT22;20233;50.804;7.126;2023-05-09T12:50:55;24.30;99.90
33955;DHT22;20233;50.804;7.126;2023-05-09T12:53:25;24.20;99.90
33955;DHT22;20233;50.804;7.126;2023-05-09T12:55:55;24.10;99.90
33955;DHT22;20233;50.804;7.126;2023-05-09T12:58:31;24.30;99.90
33955;DHT22;20233;50.804;7.126;2023-05-09T13:00:57;24.20;99.90
33955;DHT22;20233;50.804;7.126;2023-05-09T13:03:27;24.10;99.90
33955;DHT22;20233;50.804;7.126;2023-05-09T13:06:00;24.00;99.90
33955;DHT22;20233;50.804;7.126;2023-05-09T13:08:27;24.10;99.90
33955;DHT22;20233;50.804;7.126;2023-05-09T13:10:53;24.20;99.90
33955;DHT22;20233;50.804;7.126;2023-05-09T13:13:19;24.10;99.90
33955;DHT22;20233;50.804;7.126;2023-05-09T13:15:46;24.10;99.90
33955;DHT22;20233;50.804;7.126;2023-05-09T13:18:12;23.90;99.90
33955;DHT22;20233;50.804;7.126;2023-05-09T13:20:37;24.00;99.90
33955;DHT22;20233;50.804;7.126;2023-05-09T13:23:03;24.00;99.90
33955;DHT22;20233;50.804;7.126;2023-05-09T13:25:29;24.00;99.90
33955;DHT22;20233;50.804;7.126;2023-05-09T13:27:54;23.90;99.90
33955;DHT22;20233;50.804;7.126;2023-05-09T13:30:20;24.00;99.90
33955;DHT22;20233;50.804;7.126;2023-05-09T13:32:46;24.10;99.90
33955;DHT22;20233;50.804;7.126;2023-05-09T13:35:12;24.00;99.90
33955;DHT22;20233;50.804;7.126;2023-05-09T13:37:38;24.00;99.90
33955;DHT22;20233;50.804;7.126;2023-05-09T13:40:03;23.90;99.90
33955;DHT22;20233;50.804;7.126;2023-05-09T13:42:29;23.80;99.90
33955;DHT22;20233;50.804;7.126;2023-05-09T13:44:55;23.80;99.90
33955;DHT22;20233;50.804;7.126;2023-05-09T13:47:21;24.00;99.90
33955;DHT22;20233;50.804;7.126;2023-05-09T13:49:46;24.10;99.90
33955;DHT22;20233;50.804;7.126;2023-05-09T13:52:12;24.10;99.90
33955;DHT22;20233;50.804;7.126;2023-05-09T13:54:39;24.20;99.90
33955;DHT22;20233;50.804;7.126;2023-05-09T13:57:05;23.90;99.90
33955;DHT22;20233;50.804;7.126;2023-05-09T13:59:32;23.80;99.90
33955;DHT22;20233;50.804;7.126;2023-05-09T14:01:59;23.70;99.90
33955;DHT22;20233;50.804;7.126;2023-05-09T14:04:28;23.70;99.90
33955;DHT22;20233;50.804;7.126;2023-05-09T14:06:55;23.50;99.90
33955;DHT22;20233;50.804;7.126;2023-05-09T14:09:21;23.50;99.90
33955;DHT22;20233;50.804;7.126;2023-05-09T14:11:48;23.40;99.90
33955;DHT22;20233;50.804;7.126;2023-05-09T14:14:19;23.50;99.90
33955;DHT22;20233;50.804;7.126;2023-05-09T14:16:45;23.50;99.90
33955;DHT22;20233;50.804;7.126;2023-05-09T14:19:11;23.50;99.90
33955;DHT22;20233;50.804;7.126;2023-05-09T14:21:37;23.60;99.90
33955;DHT22;20233;50.804;7.126;2023-05-09T14:24:04;23.50;99.90
33955;DHT22;20233;50.804;7.126;2023-05-09T14:26:29;23.50;99.90
33955;DHT22;20233;50.804;7.126;2023-05-09T14:28:55;23.40;99.90
33955;DHT22;20233;50.804;7.126;2023-05-09T14:31:20;23.40;99.90
33955;DHT22;20233;50.804;7.126;2023-05-09T14:33:46;23.40;99.90
33955;DHT22;20233;50.804;7.126;2023-05-09T14:36:12;23.30;99.90
33955;DHT22;20233;50.804;7.126;2023-05-09T14:38:37;23.20;99.90
33955;DHT22;20233;50.804;7.126;2023-05-09T14:41:05;23.30;99.90
33955;DHT22;20233;50.804;7.126;2023-05-09T14:43:31;23.00;99.90
33955;DHT22;20233;50.804;7.126;2023-05-09T14:45:57;22.90;99.90
33955;DHT22;20233;50.804;7.126;2023-05-09T14:48:23;22.80;99.90
33955;DHT22;20233;50.804;7.126;2023-05-09T14:50:48;22.50;99.90
33955;DHT22;20233;50.804;7.126;2023-05-09T14:53:14;22.00;99.90
33955;DHT22;20233;50.804;7.126;2023-05-09T14:55:40;21.70;99.90
33955;DHT22;20233;50.804;7.126;2023-05-09T14:58:06;21.50;99.90
33955;DHT22;20233;50.804;7.126;2023-05-09T15:00:32;21.30;99.90
33955;DHT22;20233;50.804;7.126;2023-05-09T15:02:59;21.10;99.90
33955;DHT22;20233;50.804;7.126;2023-05-09T15:05:24;21.00;99.90
33955;DHT22;20233;50.804;7.126;2023-05-09T15:07:50;20.80;99.90
33955;DHT22;20233;50.804;7.126;2023-05-09T15:10:15;20.70;99.90
33955;DHT22;20233;50.804;7.126;2023-05-09T15:12:42;20.60;99.90
33955;DHT22;20233;50.804;7.126;2023-05-09T15:15:15;20.40;99.90
33955;DHT22;20233;50.804;7.126;2023-05-09T15:17:42;20.30;99.90
33955;DHT22;20233;50.804;7.126;2023-05-09T15:20:11;20.10;99.90
33955;DHT22;20233;50.804;7.126;2023-05-09T15:22:40;20.10;99.90
33955;DHT22;20233;50.804;7.126;2023-05-09T15:25:06;20.00;99.90
33955;DHT22;20233;50.804;7.126;2023-05-09T15:27:31;20.00;99.90
33955;DHT22;20233;50.804;7.126;2023-05-09T15:29:57;20.00;99.90
33955;DHT22;20233;50.804;7.126;2023-05-09T15:32:22;20.00;99.90
33955;DHT22;20233;50.804;7.126;2023-05-09T15:34:48;19.90;99.90
33955;DHT22;20233;50.804;7.126;2023-05-09T15:37:14;19.80;99.90
33955;DHT22;20233;50.804;7.126;2023-05-09T15:39:39;19.70;99.90
33955;DHT22;20233;50.804;7.126;2023-05-09T15:42:11;19.70;99.90
33955;DHT22;20233;50.804;7.126;2023-05-09T15:44:38;19.60;99.90
33955;DHT22;20233;50.804;7.126;2023-05-09T15:47:04;19.60;99.90
33955;DHT22;20233;50.804;7.126;2023-05-09T15:49:29;19.50;99.90